sensor_id;sensor_type;location;lat;lon;timestamp;temperature;humidity
15543;DHT22;7873;52.230;12.856;2023-04-06T00:02:27;25.20;32.30
15543;DHT22;7873;52.230;12.856;2023-04-06T00:04:54;25.20;32.30
15543;DHT22;7873;52.230;12.856;2023-04-06T00:07:21;25.10;32.30
15543;DHT22;7873;52.230;12.856;2023-04-06T00:09:47;25.00;32.50
15543;DHT22;7873;52.230;12.856;2023-04-06T00:12:15;25.00;32.50
15543;DHT22;7873;52.230;12.856;2023-04-06T00:14:41;24.90;32.70
15543;DHT22;7873;52.230;12.856;2023-04-06T00:17:08;24.90;32.80
15543;DHT22;7873;52.230;12.856;2023-04-06T00:19:36;24.80;32.90
15543;DHT22;7873;52.230;12.856;2023-04-06T00:22:03;24.70;33.00
15543;DHT22;7873;52.230;12.856;2023-04-06T00:24:29;24.80;33.10
15543;DHT22;7873;52.230;12.856;2023-04-06T00:26:56;24.70;33.20
15543;DHT22;7873;52.230;12.856;2023-04-06T00:29:23;24.60;33.00
15543;DHT22;7873;52.230;12.856;2023-04-06T00:31:49;24.60;33.30
15543;DHT22;7873;52.230;12.856;2023-04-06T00:34:16;24.50;33.30
15543;DHT22;7873;52.230;12.856;2023-04-06T00:36:44;24.50;33.30
15543;DHT22;7873;52.230;12.856;2023-04-06T00:39:11;24.50;33.30
15543;DHT22;7873;52.230;12.856;2023-04-06T00:41:38;24.50;33.30
15543;DHT22;7873;52.230;12.856;2023-04-06T00:44:05;24.50;33.30
15543;DHT22;7873;52.230;12.856;2023-04-06T00:46:32;24.50;33.20
15543;DHT22;7873;52.230;12.856;2023-04-06T00:48:59;24.50;33.30
15543;DHT22;7873;52.230;12.856;2023-04-06T00:51:25;24.50;33.30
15543;DHT22;7873;52.230;12.856;2023-04-06T00:53:53;24.50;33.30
15543;DHT22;7873;52.230;12.856;2023-04-06T00:56:20;24.30;33.50
15543;DHT22;7873;52.230;12.856;2023-04-06T00:58:48;24.40;33.60
15543;DHT22;7873;52.230;12.856;2023-04-06T01:01:15;24.30;33.50
15543;DHT22;7873;52.230;12.856;2023-04-06T01:03:42;24.30;33.50
15543;DHT22;7873;52.230;12.856;2023-04-06T01:06:09;24.30;33.70
15543;DHT22;7873;52.230;12.856;2023-04-06T01:08:36;24.10;34.50
15543;DHT22;7873;52.230;12.856;2023-04-06T01:11:04;24.20;33.70
15543;DHT22;7873;52.230;12.856;2023-04-06T01:13:31;24.10;33.70
15543;DHT22;7873;52.230;12.856;2023-04-06T01:15:57;24.10;33.80
15543;DHT22;7873;52.230;12.856;2023-04-06T01:18:27;24.10;33.80
15543;DHT22;7873;52.230;12.856;2023-04-06T01:20:55;24.10;33.90
15543;DHT22;7873;52.230;12.856;2023-04-06T01:23:23;24.00;33.90
15543;DHT22;7873;52.230;12.856;2023-04-06T01:25:49;24.10;33.80
15543;DHT22;7873;52.230;12.856;2023-04-06T01:28:16;24.10;33.80
15543;DHT22;7873;52.230;12.856;2023-04-06T01:30:43;24.00;33.80
15543;DHT22;7873;52.230;12.856;2023-04-06T01:33:10;24.00;33.80
15543;DHT22;7873;52.230;12.856;2023-04-06T01:35:36;23.90;33.90
15543;DHT22;7873;52.230;12.856;2023-04-06T01:38:03;23.90;34.10
15543;DHT22;7873;52.230;12.856;2023-04-06T01:40:32;23.80;34.20
15543;DHT22;7873;52.230;12.856;2023-04-06T01:42:58;23.80;34.20
15543;DHT22;7873;52.230;12.856;2023-04-06T01:45:25;23.80;34.20
15543;DHT22;7873;52.230;12.856;2023-04-06T01:47:51;23.70;34.10
15543;DHT22;7873;52.230;12.856;2023-04-06T01:50:18;23.80;34.10
15543;DHT22;7873;52.230;12.856;2023-04-06T01:52:45;23.70;34.10
15543;DHT22;7873;52.230;12.856;2023-04-06T01:55:11;23.80;34.10
15543;DHT22;7873;52.230;12.856;2023-04-06T01:57:39;23.80;34.10
15543;DHT22;7873;52.230;12.856;2023-04-06T02:00:06;23.70;34.20
15543;DHT22;7873;52.230;12.856;2023-04-06T02:02:34;23.70;34.20
15543;DHT22;7873;52.230;12.856;2023-04-06T02:05:00;23.70;34.10
15543;DHT22;7873;52.230;12.856;2023-04-06T02:07:27;23.70;34.10
15543;DHT22;7873;52.230;12.856;2023-04-06T02:09:54;23.80;34.00
15543;DHT22;7873;52.230;12.856;2023-04-06T02:12:21;23.80;33.90
15543;DHT22;7873;52.230;12.856;2023-04-06T02:14:50;23.70;34.00
15543;DHT22;7873;52.230;12.856;2023-04-06T02:17:17;23.70;34.10
15543;DHT22;7873;52.230;12.856;2023-04-06T02:19:43;23.60;34.10
15543;DHT22;7873;52.230;12.856;2023-04-06T02:22:10;23.60;34.10
15543;DHT22;7873;52.230;12.856;2023-04-06T02:24:37;23.60;34.10
15543;DHT22;7873;52.230;12.856;2023-04-06T02:27:04;23.60;34.00
15543;DHT22;7873;52.230;12.856;2023-04-06T02:29:31;23.60;34.10
15543;DHT22;7873;52.230;12.856;2023-04-06T02:31:59;23.50;34.20
15543;DHT22;7873;52.230;12.856;2023-04-06T02:34:25;23.50;34.20
15543;DHT22;7873;52.230;12.856;2023-04-06T02:36:52;23.60;34.00
15543;DHT22;7873;52.230;12.856;2023-04-06T02:39:19;23.50;34.10
15543;DHT22;7873;52.230;12.856;2023-04-06T02:41:45;23.50;34.10
15543;DHT22;7873;52.230;12.856;2023-04-06T02:44:12;23.50;34.20
15543;DHT22;7873;52.230;12.856;2023-04-06T02:46:39;23.40;34.20
15543;DHT22;7873;52.230;12.856;2023-04-06T02:49:07;23.50;34.20
15543;DHT22;7873;52.230;12.856;2023-04-06T02:51:33;23.40;34.10
15543;DHT22;7873;52.230;12.856;2023-04-06T02:54:00;23.40;34.20
15543;DHT22;7873;52.230;12.856;2023-04-06T02:56:27;23.40;34.10
15543;DHT22;7873;52.230;12.856;2023-04-06T02:58:53;23.40;34.20
15543;DHT22;7873;52.230;12.856;2023-04-06T03:01:20;23.30;34.20
15543;DHT22;7873;52.230;12.856;2023-04-06T03:03:47;23.30;34.20
15543;DHT22;7873;52.230;12.856;2023-04-06T03:06:15;23.30;34.20
15543;DHT22;7873;52.230;12.856;2023-04-06T03:08:41;23.20;34.40
15543;DHT22;7873;52.230;12.856;2023-04-06T03:11:08;23.20;34.40
15543;DHT22;7873;52.230;12.856;2023-04-06T03:13:35;23.20;34.40
15543;DHT22;7873;52.230;12.856;2023-04-06T03:16:03;23.10;34.40
15543;DHT22;7873;52.230;12.856;2023-04-06T03:18:31;23.20;34.30
15543;DHT22;7873;52.230;12.856;2023-04-06T03:20:58;23.20;34.40
15543;DHT22;7873;52.230;12.856;2023-04-06T03:23:26;23.20;34.40
15543;DHT22;7873;52.230;12.856;2023-04-06T03:25:53;23.10;34.70
15543;DHT22;7873;52.230;12.856;2023-04-06T03:28:20;23.00;34.60
15543;DHT22;7873;52.230;12.856;2023-04-06T03:30:46;23.00;34.50
15543;DHT22;7873;52.230;12.856;2023-04-06T03:33:13;23.10;34.50
15543;DHT22;7873;52.230;12.856;2023-04-06T03:35:40;23.00;34.80
15543;DHT22;7873;52.230;12.856;2023-04-06T03:38:07;22.70;35.30
15543;DHT22;7873;52.230;12.856;2023-04-06T03:40:35;22.60;35.60
15543;DHT22;7873;52.230;12.856;2023-04-06T03:43:02;22.70;35.40
15543;DHT22;7873;52.230;12.856;2023-04-06T03:45:29;22.70;35.80
15543;DHT22;7873;52.230;12.856;2023-04-06T03:47:55;22.80;35.70
15543;DHT22;7873;52.230;12.856;2023-04-06T03:50:22;22.90;36.20
15543;DHT22;7873;52.230;12.856;2023-04-06T03:52:49;22.90;35.40
15543;DHT22;7873;52.230;12.856;2023-04-06T03:55:15;23.10;35.20
15543;DHT22;7873;52.230;12.856;2023-04-06T03:57:44;23.10;35.00
15543;DHT22;7873;52.230;12.856;2023-04-06T04:00:11;23.20;34.70
15543;DHT22;7873;52.230;12.856;2023-04-06T04:02:39;23.20;34.70
15543;DHT22;7873;52.230;12.856;2023-04-06T04:05:06;23.20;34.60
15543;DHT22;7873;52.230;12.856;2023-04-06T04:07:34;23.20;34.70
15543;DHT22;7873;52.230;12.856;2023-04-06T04:10:01;23.20;34.70
15543;DHT22;7873;52.230;12.856;2023-04-06T04:12:28;23.30;34.60
15543;DHT22;7873;52.230;12.856;2023-04-06T04:14:56;23.10;35.00
15543;DHT22;7873;52.230;12.856;2023-04-06T04:17:22;23.00;35.70
15543;DHT22;7873;52.230;12.856;2023-04-06T04:19:50;23.00;35.70
15543;DHT22;7873;52.230;12.856;2023-04-06T04:22:17;23.10;35.40
15543;DHT22;7873;52.230;12.856;2023-04-06T04:24:44;23.00;35.60
15543;DHT22;7873;52.230;12.856;2023-04-06T04:27:10;23.00;35.60
15543;DHT22;7873;52.230;12.856;2023-04-06T04:29:37;23.00;35.80
15543;DHT22;7873;52.230;12.856;2023-04-06T04:32:05;23.00;35.90
15543;DHT22;7873;52.230;12.856;2023-04-06T04:34:32;23.00;36.10
15543;DHT22;7873;52.230;12.856;2023-04-06T04:36:58;23.00;35.40
15543;DHT22;7873;52.230;12.856;2023-04-06T04:39:25;22.90;36.00
15543;DHT22;7873;52.230;12.856;2023-04-06T04:41:51;22.90;36.00
15543;DHT22;7873;52.230;12.856;2023-04-06T04:44:18;22.80;36.20
15543;DHT22;7873;52.230;12.856;2023-04-06T04:46:45;22.80;34.20
15543;DHT22;7873;52.230;12.856;2023-04-06T04:49:13;22.90;34.80
15543;DHT22;7873;52.230;12.856;2023-04-06T04:51:40;23.00;35.20
15543;DHT22;7873;52.230;12.856;2023-04-06T04:54:06;23.00;35.40
15543;DHT22;7873;52.230;12.856;2023-04-06T04:56:33;23.10;35.10
15543;DHT22;7873;52.230;12.856;2023-04-06T04:59:00;23.20;35.10
15543;DHT22;7873;52.230;12.856;2023-04-06T05:01:26;23.10;35.20
15543;DHT22;7873;52.230;12.856;2023-04-06T05:03:53;23.20;35.20
15543;DHT22;7873;52.230;12.856;2023-04-06T05:06:21;23.20;35.10
15543;DHT22;7873;52.230;12.856;2023-04-06T05:08:48;23.10;35.50
15543;DHT22;7873;52.230;12.856;2023-04-06T05:11:15;23.00;35.50
15543;DHT22;7873;52.230;12.856;2023-04-06T05:13:42;22.90;35.60
15543;DHT22;7873;52.230;12.856;2023-04-06T05:16:08;22.80;35.60
15543;DHT22;7873;52.230;12.856;2023-04-06T05:18:35;23.00;35.60
15543;DHT22;7873;52.230;12.856;2023-04-06T05:21:02;23.00;35.50
15543;DHT22;7873;52.230;12.856;2023-04-06T05:23:30;22.90;35.70
15543;DHT22;7873;52.230;12.856;2023-04-06T05:25:57;23.00;35.40
15543;DHT22;7873;52.230;12.856;2023-04-06T05:28:24;23.10;35.10
15543;DHT22;7873;52.230;12.856;2023-04-06T05:30:50;23.00;36.50
15543;DHT22;7873;52.230;12.856;2023-04-06T05:33:17;22.90;36.00
15543;DHT22;7873;52.230;12.856;2023-04-06T05:35:44;22.80;36.00
15543;DHT22;7873;52.230;12.856;2023-04-06T05:38:11;22.60;35.90
15543;DHT22;7873;52.230;12.856;2023-04-06T05:40:39;22.60;34.90
15543;DHT22;7873;52.230;12.856;2023-04-06T05:43:06;22.60;34.70
15543;DHT22;7873;52.230;12.856;2023-04-06T05:45:33;22.50;34.30
15543;DHT22;7873;52.230;12.856;2023-04-06T05:48:00;22.40;35.10
15543;DHT22;7873;52.230;12.856;2023-04-06T05:50:27;22.30;34.50
15543;DHT22;7873;52.230;12.856;2023-04-06T05:52:54;22.20;34.60
15543;DHT22;7873;52.230;12.856;2023-04-06T05:55:21;22.00;35.00
15543;DHT22;7873;52.230;12.856;2023-04-06T05:57:49;21.90;35.10
15543;DHT22;7873;52.230;12.856;2023-04-06T06:00:15;21.90;35.20
15543;DHT22;7873;52.230;12.856;2023-04-06T06:02:42;21.80;35.30
15543;DHT22;7873;52.230;12.856;2023-04-06T06:05:09;21.90;35.20
15543;DHT22;7873;52.230;12.856;2023-04-06T06:07:36;21.80;35.30
15543;DHT22;7873;52.230;12.856;2023-04-06T06:10:03;21.90;35.20
15543;DHT22;7873;52.230;12.856;2023-04-06T06:12:29;21.80;35.20
15543;DHT22;7873;52.230;12.856;2023-04-06T06:14:59;21.90;35.20
15543;DHT22;7873;52.230;12.856;2023-04-06T06:17:25;21.90;35.10
15543;DHT22;7873;52.230;12.856;2023-04-06T06:19:52;21.90;35.10
15543;DHT22;7873;52.230;12.856;2023-04-06T06:22:19;21.90;35.00
15543;DHT22;7873;52.230;12.856;2023-04-06T06:24:45;22.00;35.00
15543;DHT22;7873;52.230;12.856;2023-04-06T06:27:12;22.00;35.00
15543;DHT22;7873;52.230;12.856;2023-04-06T06:29:39;22.00;34.80
15543;DHT22;7873;52.230;12.856;2023-04-06T06:32:07;22.00;34.70
15543;DHT22;7873;52.230;12.856;2023-04-06T06:34:34;22.10;34.60
15543;DHT22;7873;52.230;12.856;2023-04-06T06:37:01;22.10;34.60
15543;DHT22;7873;52.230;12.856;2023-04-06T06:39:28;22.10;34.50
15543;DHT22;7873;52.230;12.856;2023-04-06T06:41:55;22.10;34.50
15543;DHT22;7873;52.230;12.856;2023-04-06T06:44:21;22.10;34.40
15543;DHT22;7873;52.230;12.856;2023-04-06T06:46:48;22.10;34.30
15543;DHT22;7873;52.230;12.856;2023-04-06T06:49:16;22.10;34.50
15543;DHT22;7873;52.230;12.856;2023-04-06T06:51:43;22.10;34.50
15543;DHT22;7873;52.230;12.856;2023-04-06T06:54:11;22.20;34.30
15543;DHT22;7873;52.230;12.856;2023-04-06T06:56:37;22.10;34.30
15543;DHT22;7873;52.230;12.856;2023-04-06T06:59:04;22.10;34.50
15543;DHT22;7873;52.230;12.856;2023-04-06T07:01:32;22.10;34.60
15543;DHT22;7873;52.230;12.856;2023-04-06T07:03:59;22.10;34.50
15543;DHT22;7873;52.230;12.856;2023-04-06T07:06:27;22.10;34.60
15543;DHT22;7873;52.230;12.856;2023-04-06T07:08:53;22.10;34.60
15543;DHT22;7873;52.230;12.856;2023-04-06T07:11:20;22.00;34.50
15543;DHT22;7873;52.230;12.856;2023-04-06T07:13:47;22.00;34.60
15543;DHT22;7873;52.230;12.856;2023-04-06T07:16:13;22.00;34.60
15543;DHT22;7873;52.230;12.856;2023-04-06T07:18:40;22.00;34.60
15543;DHT22;7873;52.230;12.856;2023-04-06T07:21:07;22.00;34.60
15543;DHT22;7873;52.230;12.856;2023-04-06T07:23:35;22.00;34.60
15543;DHT22;7873;52.230;12.856;2023-04-06T07:26:01;22.00;34.50
15543;DHT22;7873;52.230;12.856;2023-04-06T07:28:28;22.00;34.50
15543;DHT22;7873;52.230;12.856;2023-04-06T07:30:55;22.00;34.50
15543;DHT22;7873;52.230;12.856;2023-04-06T07:33:21;22.00;34.40
15543;DHT22;7873;52.230;12.856;2023-04-06T07:35:48;21.90;34.50
15543;DHT22;7873;52.230;12.856;2023-04-06T07:38:15;21.90;34.60
15543;DHT22;7873;52.230;12.856;2023-04-06T07:40:43;21.80;34.70
15543;DHT22;7873;52.230;12.856;2023-04-06T07:43:10;21.80;34.60
15543;DHT22;7873;52.230;12.856;2023-04-06T07:45:37;21.80;34.70
15543;DHT22;7873;52.230;12.856;2023-04-06T07:48:04;21.80;34.80
15543;DHT22;7873;52.230;12.856;2023-04-06T07:50:30;21.80;34.90
15543;DHT22;7873;52.230;12.856;2023-04-06T07:52:57;21.80;34.80
15543;DHT22;7873;52.230;12.856;2023-04-06T07:55:25;21.80;34.70
15543;DHT22;7873;52.230;12.856;2023-04-06T07:57:53;21.80;34.70
15543;DHT22;7873;52.230;12.856;2023-04-06T08:00:20;21.80;34.80
15543;DHT22;7873;52.230;12.856;2023-04-06T08:02:47;21.80;34.70
15543;DHT22;7873;52.230;12.856;2023-04-06T08:05:14;21.80;34.70
15543;DHT22;7873;52.230;12.856;2023-04-06T08:07:41;21.80;34.60
15543;DHT22;7873;52.230;12.856;2023-04-06T08:10:08;21.90;34.60
15543;DHT22;7873;52.230;12.856;2023-04-06T08:12:35;21.80;34.60
15543;DHT22;7873;52.230;12.856;2023-04-06T08:15:04;21.90;34.60
15543;DHT22;7873;52.230;12.856;2023-04-06T08:17:31;21.90;34.60
15543;DHT22;7873;52.230;12.856;2023-04-06T08:19:59;21.90;34.70
15543;DHT22;7873;52.230;12.856;2023-04-06T08:22:25;21.90;34.50
15543;DHT22;7873;52.230;12.856;2023-04-06T08:24:52;21.90;34.50
15543;DHT22;7873;52.230;12.856;2023-04-06T08:27:19;21.90;34.50
15543;DHT22;7873;52.230;12.856;2023-04-06T08:29:45;21.90;34.50
15543;DHT22;7873;52.230;12.856;2023-04-06T08:32:14;21.90;34.40
15543;DHT22;7873;52.230;12.856;2023-04-06T08:34:41;21.90;35.10
15543;DHT22;7873;52.230;12.856;2023-04-06T08:37:08;21.70;33.20
15543;DHT22;7873;52.230;12.856;2023-04-06T08:39:34;21.70;33.30
15543;DHT22;7873;52.230;12.856;2023-04-06T08:42:01;21.70;33.30
15543;DHT22;7873;52.230;12.856;2023-04-06T08:44:28;21.70;32.10
15543;DHT22;7873;52.230;12.856;2023-04-06T08:46:56;21.70;31.90
15543;DHT22;7873;52.230;12.856;2023-04-06T08:49:25;21.50;32.60
15543;DHT22;7873;52.230;12.856;2023-04-06T08:51:51;20.30;30.30
15543;DHT22;7873;52.230;12.856;2023-04-06T08:54:18;19.30;29.70
15543;DHT22;7873;52.230;12.856;2023-04-06T08:56:45;18.70;30.40
15543;DHT22;7873;52.230;12.856;2023-04-06T08:59:13;18.30;30.70
15543;DHT22;7873;52.230;12.856;2023-04-06T09:01:40;18.30;31.30
15543;DHT22;7873;52.230;12.856;2023-04-06T09:04:08;18.70;31.60
15543;DHT22;7873;52.230;12.856;2023-04-06T09:06:38;19.30;31.30
15543;DHT22;7873;52.230;12.856;2023-04-06T09:09:05;19.70;30.30
15543;DHT22;7873;52.230;12.856;2023-04-06T09:11:45;20.00;30.00
15543;DHT22;7873;52.230;12.856;2023-04-06T09:14:13;20.20;30.00
15543;DHT22;7873;52.230;12.856;2023-04-06T09:16:40;20.50;29.90
15543;DHT22;7873;52.230;12.856;2023-04-06T09:19:08;20.60;29.90
15543;DHT22;7873;52.230;12.856;2023-04-06T09:21:35;20.70;29.90
15543;DHT22;7873;52.230;12.856;2023-04-06T09:24:04;20.80;30.00
15543;DHT22;7873;52.230;12.856;2023-04-06T09:26:32;20.80;30.10
15543;DHT22;7873;52.230;12.856;2023-04-06T09:29:21;20.90;30.30
15543;DHT22;7873;52.230;12.856;2023-04-06T09:31:48;21.00;30.40
15543;DHT22;7873;52.230;12.856;2023-04-06T09:34:20;21.00;30.50
15543;DHT22;7873;52.230;12.856;2023-04-06T09:36:47;21.00;30.60
15543;DHT22;7873;52.230;12.856;2023-04-06T09:39:15;21.00;30.80
15543;DHT22;7873;52.230;12.856;2023-04-06T09:44:16;21.10;31.20
15543;DHT22;7873;52.230;12.856;2023-04-06T09:46:43;21.10;31.30
15543;DHT22;7873;52.230;12.856;2023-04-06T09:49:11;21.20;31.30
15543;DHT22;7873;52.230;12.856;2023-04-06T09:51:39;21.20;31.30
15543;DHT22;7873;52.230;12.856;2023-04-06T09:54:07;21.20;31.40
15543;DHT22;7873;52.230;12.856;2023-04-06T09:56:39;21.10;31.60
15543;DHT22;7873;52.230;12.856;2023-04-06T09:59:13;21.00;31.90
15543;DHT22;7873;52.230;12.856;2023-04-06T10:01:44;21.00;32.00
15543;DHT22;7873;52.230;12.856;2023-04-06T10:04:18;20.90;32.20
15543;DHT22;7873;52.230;12.856;2023-04-06T10:06:52;21.00;32.30
15543;DHT22;7873;52.230;12.856;2023-04-06T10:09:20;20.90;32.40
15543;DHT22;7873;52.230;12.856;2023-04-06T10:11:53;20.90;32.70
15543;DHT22;7873;52.230;12.856;2023-04-06T10:14:21;20.80;32.30
15543;DHT22;7873;52.230;12.856;2023-04-06T10:16:48;20.80;32.40
15543;DHT22;7873;52.230;12.856;2023-04-06T10:19:16;20.80;32.00
15543;DHT22;7873;52.230;12.856;2023-04-06T10:21:50;20.70;32.70
15543;DHT22;7873;52.230;12.856;2023-04-06T10:24:19;20.80;32.90
15543;DHT22;7873;52.230;12.856;2023-04-06T10:26:57;20.70;32.10
15543;DHT22;7873;52.230;12.856;2023-04-06T10:29:25;20.70;32.60
15543;DHT22;7873;52.230;12.856;2023-04-06T10:31:52;20.70;31.80
15543;DHT22;7873;52.230;12.856;2023-04-06T10:34:20;20.70;31.60
15543;DHT22;7873;52.230;12.856;2023-04-06T10:36:47;20.70;31.70
15543;DHT22;7873;52.230;12.856;2023-04-06T10:39:14;20.70;31.60
15543;DHT22;7873;52.230;12.856;2023-04-06T10:41:41;20.70;32.10
15543;DHT22;7873;52.230;12.856;2023-04-06T10:44:18;20.70;32.10
15543;DHT22;7873;52.230;12.856;2023-04-06T10:46:52;20.70;31.60
15543;DHT22;7873;52.230;12.856;2023-04-06T10:49:19;20.70;31.60
15543;DHT22;7873;52.230;12.856;2023-04-06T10:51:50;20.70;31.40
15543;DHT22;7873;52.230;12.856;2023-04-06T10:54:18;20.60;31.30
15543;DHT22;7873;52.230;12.856;2023-04-06T10:56:46;20.60;31.40
15543;DHT22;7873;52.230;12.856;2023-04-06T10:59:14;20.60;31.60
15543;DHT22;7873;52.230;12.856;2023-04-06T11:01:46;20.60;32.10
15543;DHT22;7873;52.230;12.856;2023-04-06T11:04:15;20.60;31.70
15543;DHT22;7873;52.230;12.856;2023-04-06T11:06:45;20.60;31.60
15543;DHT22;7873;52.230;12.856;2023-04-06T11:09:22;20.60;31.50
15543;DHT22;7873;52.230;12.856;2023-04-06T11:11:50;20.60;31.50
15543;DHT22;7873;52.230;12.856;2023-04-06T11:14:16;20.60;31.60
15543;DHT22;7873;52.230;12.856;2023-04-06T11:16:45;20.60;31.50
15543;DHT22;7873;52.230;12.856;2023-04-06T11:19:12;20.60;31.60
15543;DHT22;7873;52.230;12.856;2023-04-06T11:21:39;20.60;31.60
15543;DHT22;7873;52.230;12.856;2023-04-06T11:24:09;20.60;31.60
15543;DHT22;7873;52.230;12.856;2023-04-06T11:26:38;20.60;31.50
15543;DHT22;7873;52.230;12.856;2023-04-06T11:29:05;20.60;31.40
15543;DHT22;7873;52.230;12.856;2023-04-06T11:31:37;20.60;31.30
15543;DHT22;7873;52.230;12.856;2023-04-06T11:34:09;20.60;31.40
15543;DHT22;7873;52.230;12.856;2023-04-06T11:36:39;20.60;31.40
15543;DHT22;7873;52.230;12.856;2023-04-06T11:39:07;20.60;31.60
15543;DHT22;7873;52.230;12.856;2023-04-06T11:41:34;20.60;31.50
15543;DHT22;7873;52.230;12.856;2023-04-06T11:44:01;20.60;31.60
15543;DHT22;7873;52.230;12.856;2023-04-06T11:46:28;20.60;31.50
15543;DHT22;7873;52.230;12.856;2023-04-06T11:48:57;20.60;31.60
15543;DHT22;7873;52.230;12.856;2023-04-06T11:51:26;20.60;31.60
15543;DHT22;7873;52.230;12.856;2023-04-06T11:53:54;20.50;31.50
15543;DHT22;7873;52.230;12.856;2023-04-06T11:56:24;20.60;31.50
15543;DHT22;7873;52.230;12.856;2023-04-06T11:58:52;20.60;31.60
15543;DHT22;7873;52.230;12.856;2023-04-06T12:01:20;20.50;31.60
15543;DHT22;7873;52.230;12.856;2023-04-06T12:03:46;20.50;31.60
15543;DHT22;7873;52.230;12.856;2023-04-06T12:06:13;20.50;31.80
15543;DHT22;7873;52.230;12.856;2023-04-06T12:08:41;20.60;31.80
15543;DHT22;7873;52.230;12.856;2023-04-06T12:11:08;20.60;31.50
15543;DHT22;7873;52.230;12.856;2023-04-06T12:13:34;20.60;31.70
15543;DHT22;7873;52.230;12.856;2023-04-06T12:16:01;20.50;31.60
15543;DHT22;7873;52.230;12.856;2023-04-06T12:18:28;20.60;31.40
15543;DHT22;7873;52.230;12.856;2023-04-06T12:20:56;20.50;31.40
15543;DHT22;7873;52.230;12.856;2023-04-06T12:23:22;20.50;31.70
15543;DHT22;7873;52.230;12.856;2023-04-06T12:25:50;20.50;31.60
15543;DHT22;7873;52.230;12.856;2023-04-06T12:28:17;20.50;32.50
15543;DHT22;7873;52.230;12.856;2023-04-06T12:30:45;20.50;31.60
15543;DHT22;7873;52.230;12.856;2023-04-06T12:33:12;20.50;31.60
15543;DHT22;7873;52.230;12.856;2023-04-06T12:35:39;20.50;31.80
15543;DHT22;7873;52.230;12.856;2023-04-06T12:38:06;20.50;31.60
15543;DHT22;7873;52.230;12.856;2023-04-06T12:40:35;20.50;31.30
15543;DHT22;7873;52.230;12.856;2023-04-06T12:43:04;20.50;32.20
15543;DHT22;7873;52.230;12.856;2023-04-06T12:45:31;20.50;31.90
15543;DHT22;7873;52.230;12.856;2023-04-06T12:47:57;20.50;32.30
15543;DHT22;7873;52.230;12.856;2023-04-06T12:50:24;20.60;31.70
15543;DHT22;7873;52.230;12.856;2023-04-06T12:52:51;20.70;32.10
15543;DHT22;7873;52.230;12.856;2023-04-06T12:55:18;20.70;31.70
15543;DHT22;7873;52.230;12.856;2023-04-06T12:57:45;20.60;31.90
15543;DHT22;7873;52.230;12.856;2023-04-06T13:00:14;20.60;31.70
15543;DHT22;7873;52.230;12.856;2023-04-06T13:02:41;20.60;32.20
15543;DHT22;7873;52.230;12.856;2023-04-06T13:05:12;20.60;31.80
15543;DHT22;7873;52.230;12.856;2023-04-06T13:07:39;20.60;32.30
15543;DHT22;7873;52.230;12.856;2023-04-06T13:10:07;20.60;31.90
15543;DHT22;7873;52.230;12.856;2023-04-06T13:12:34;20.80;32.00
15543;DHT22;7873;52.230;12.856;2023-04-06T13:15:01;20.90;32.40
15543;DHT22;7873;52.230;12.856;2023-04-06T13:17:29;20.90;31.90
15543;DHT22;7873;52.230;12.856;2023-04-06T13:19:55;20.90;33.00
15543;DHT22;7873;52.230;12.856;2023-04-06T13:22:22;20.70;33.70
15543;DHT22;7873;52.230;12.856;2023-04-06T13:24:49;20.60;33.50
15543;DHT22;7873;52.230;12.856;2023-04-06T13:27:15;20.60;33.20
15543;DHT22;7873;52.230;12.856;2023-04-06T13:29:42;20.60;32.50
15543;DHT22;7873;52.230;12.856;2023-04-06T13:32:09;20.70;32.40
15543;DHT22;7873;52.230;12.856;2023-04-06T13:34:37;20.80;32.40
15543;DHT22;7873;52.230;12.856;2023-04-06T13:37:03;20.80;32.70
15543;DHT22;7873;52.230;12.856;2023-04-06T13:39:31;20.90;32.30
15543;DHT22;7873;52.230;12.856;2023-04-06T13:41:58;20.90;32.40
15543;DHT22;7873;52.230;12.856;2023-04-06T13:44:25;20.90;32.40
15543;DHT22;7873;52.230;12.856;2023-04-06T13:46:51;20.90;32.20
15543;DHT22;7873;52.230;12.856;2023-04-06T13:49:18;20.90;32.60
15543;DHT22;7873;52.230;12.856;2023-04-06T13:51:46;20.90;32.60
15543;DHT22;7873;52.230;12.856;2023-04-06T13:54:13;20.80;33.10
15543;DHT22;7873;52.230;12.856;2023-04-06T13:56:40;21.00;32.80
15543;DHT22;7873;52.230;12.856;2023-04-06T13:59:06;21.10;32.80
15543;DHT22;7873;52.230;12.856;2023-04-06T14:01:33;21.20;32.80
15543;DHT22;7873;52.230;12.856;2023-04-06T14:04:00;21.30;32.70
15543;DHT22;7873;52.230;12.856;2023-04-06T14:06:26;21.30;32.60
15543;DHT22;7873;52.230;12.856;2023-04-06T14:08:54;21.00;32.30
15543;DHT22;7873;52.230;12.856;2023-04-06T14:11:22;20.80;29.10
15543;DHT22;7873;52.230;12.856;2023-04-06T14:13:48;20.30;27.30
15543;DHT22;7873;52.230;12.856;2023-04-06T14:16:15;20.00;29.60
15543;DHT22;7873;52.230;12.856;2023-04-06T14:18:44;19.80;28.70
15543;DHT22;7873;52.230;12.856;2023-04-06T14:21:11;19.70;29.60
15543;DHT22;7873;52.230;12.856;2023-04-06T14:23:38;19.80;30.00
15543;DHT22;7873;52.230;12.856;2023-04-06T14:26:06;19.90;29.90
15543;DHT22;7873;52.230;12.856;2023-04-06T14:28:34;19.80;30.20
15543;DHT22;7873;52.230;12.856;2023-04-06T14:31:02;19.60;29.20
15543;DHT22;7873;52.230;12.856;2023-04-06T14:33:35;19.70;29.40
15543;DHT22;7873;52.230;12.856;2023-04-06T14:36:02;19.60;28.70
15543;DHT22;7873;52.230;12.856;2023-04-06T14:38:29;19.70;29.10
15543;DHT22;7873;52.230;12.856;2023-04-06T14:40:56;19.70;29.40
15543;DHT22;7873;52.230;12.856;2023-04-06T14:43:24;19.70;29.20
15543;DHT22;7873;52.230;12.856;2023-04-06T14:45:51;19.60;29.10
15543;DHT22;7873;52.230;12.856;2023-04-06T14:48:18;19.60;27.20
15543;DHT22;7873;52.230;12.856;2023-04-06T14:50:51;19.50;28.90
15543;DHT22;7873;52.230;12.856;2023-04-06T14:53:18;19.50;28.80
15543;DHT22;7873;52.230;12.856;2023-04-06T14:55:45;19.60;30.00
15543;DHT22;7873;52.230;12.856;2023-04-06T14:58:12;20.00;29.40
15543;DHT22;7873;52.230;12.856;2023-04-06T15:00:40;20.30;29.50
15543;DHT22;7873;52.230;12.856;2023-04-06T15:03:06;20.30;28.50
15543;DHT22;7873;52.230;12.856;2023-04-06T15:05:33;20.10;27.80
15543;DHT22;7873;52.230;12.856;2023-04-06T15:08:01;20.00;27.90
15543;DHT22;7873;52.230;12.856;2023-04-06T15:10:30;19.90;26.90
15543;DHT22;7873;52.230;12.856;2023-04-06T15:12:57;19.80;27.00
15543;DHT22;7873;52.230;12.856;2023-04-06T15:15:24;19.80;26.30
15543;DHT22;7873;52.230;12.856;2023-04-06T15:17:52;19.10;26.70
15543;DHT22;7873;52.230;12.856;2023-04-06T15:20:18;18.90;26.40
15543;DHT22;7873;52.230;12.856;2023-04-06T15:22:45;18.90;26.60
15543;DHT22;7873;52.230;12.856;2023-04-06T15:25:11;19.00;27.00
15543;DHT22;7873;52.230;12.856;2023-04-06T15:27:38;19.10;27.20
15543;DHT22;7873;52.230;12.856;2023-04-06T15:30:05;19.00;27.40
15543;DHT22;7873;52.230;12.856;2023-04-06T15:32:32;18.90;27.80
15543;DHT22;7873;52.230;12.856;2023-04-06T15:35:07;19.00;27.90